Latest Weather Observations for Cape Nelson

IDV60801

Issued at 11:35 pm EDT Monday 20 October 2014 (issued every 30 minutes, with the page automatically refreshed every 10 minutes)

About weather observations | Map of weather stations | Latest weather observations for VIC | Other Formats
Station Details ID: 090184 Name: CAPE NELSON LIGHTHOUSE Lat: -38.43 Lon: 141.54 Height: 45.4 m
Data from the previous 72 hours. | See also: Recent months at Cape Nelson
Date/Time
EDT
Temp
°C
App
Temp
°C
Dew
Point
Rel
Hum
%
Delta-T
°C
Wind Press
QNH
hPa
Press
MSL
hPa
Rain
since 9 am
mm
Dir
 
Spd
km/h
Gust
km/h
Spd
kts
Gust
kts
20/11:30pm 12.3 4.9 8.4 77 1.9 E 37 52 20 28 1027.5 1027.5 0.0
20/11:00pm 12.5 6.2 8.8 78 1.8 E 32 46 17 25 1027.7 1027.7 0.0
20/10:30pm 13.0 5.1 9.4 79 1.8 E 41 57 22 31 1027.6 1027.6 0.0
20/10:16pm 13.0 5.5 9.6 80 1.7 E 39 57 21 31 1027.7 1027.7 0.0
20/10:00pm 13.1 4.9 9.7 80 1.7 E 43 57 23 31 1027.7 1027.7 0.0
20/09:44pm 13.0 4.6 9.8 81 1.6 E 44 63 24 34 1027.6 1027.6 0.0
20/09:30pm 13.0 4.2 9.6 80 1.7 E 46 63 25 34 1027.5 1027.5 0.0
20/09:00pm 12.9 3.3 9.4 79 1.8 E 50 63 27 34 1027.2 1027.2 0.0
20/08:30pm 12.9 2.6 9.5 80 1.7 E 54 65 29 35 1026.9 1026.9 0.0
20/08:00pm 12.7 2.6 8.8 77 1.9 E 52 63 28 34 1026.9 1026.9 0.0
20/07:30pm 12.9 3.2 9.0 77 2.0 E 50 59 27 32 1026.8 1026.8 0.0
20/07:00pm 13.1 3.6 8.4 73 2.3 E 48 59 26 32 1027.0 1027.0 0.0
20/06:30pm 13.4 5.2 8.3 71 2.5 E 41 56 22 30 1027.3 1027.3 0.0
20/06:00pm 13.2 5.1 6.8 65 3.1 E 39 54 21 29 1027.6 1027.6 0.0
20/05:30pm 13.4 6.2 7.8 69 2.8 E 35 54 19 29 1028.0 1028.0 0.0
20/05:27pm 13.3 6.1 7.5 68 2.8 E 35 54 19 29 1027.9 1027.9 0.0
20/05:00pm 13.1 5.6 6.5 64 3.1 E 35 50 19 27 1028.2 1028.2 0.0
20/04:30pm 13.3 6.3 6.9 65 3.1 ESE 33 48 18 26 1028.6 1028.6 0.0
20/04:00pm 13.6 5.9 7.2 65 3.1 E 37 50 20 27 1029.0 1029.0 0.0
20/03:30pm 13.6 5.5 6.9 64 3.2 E 39 50 21 27 1029.0 1029.0 0.0
20/03:11pm 13.6 5.5 6.9 64 3.2 E 39 57 21 31 1029.1 1029.1 0.0
20/03:00pm 13.5 5.2 6.1 61 3.5 E 39 50 21 27 1029.2 1029.2 0.0
20/02:30pm 13.7 5.1 6.3 61 3.5 E 41 52 22 28 1029.3 1029.3 0.0
20/02:00pm 13.6 5.0 6.7 63 3.3 E 41 52 22 28 1029.6 1029.6 0.0
20/01:30pm 13.4 4.2 5.6 59 3.7 E 43 52 23 28 1029.9 1029.9 0.0
20/01:00pm 13.4 4.0 5.6 59 3.6 E 44 54 24 29 1030.3 1030.3 0.0
20/12:30pm 13.6 3.9 5.7 59 3.7 E 46 57 25 31 1030.5 1030.5 0.0
20/12:00pm 13.3 3.6 5.7 60 3.6 E 46 57 25 31 1030.7 1030.7 0.0
20/11:30am 13.3 3.1 5.2 58 3.8 E 48 59 26 32 1031.1 1031.1 0.0
20/11:00am 13.3 3.5 5.2 58 3.7 E 46 61 25 33 1031.1 1031.1 0.0
20/10:54am 13.7 4.0 5.6 58 3.8 E 46 65 25 35 1031.2 1031.2 0.0
20/10:30am 13.3 3.2 5.7 60 3.6 E 48 61 26 33 1031.0 1031.0 0.0
20/10:00am 12.7 3.3 5.6 62 3.3 E 44 56 24 30 1031.0 1031.0 0.0
20/09:30am 12.9 3.3 4.3 56 3.9 E 44 59 24 32 1030.9 1030.9 0.0
20/09:00am 12.2 2.6 4.2 58 3.6 E 44 56 24 30 1031.0 1031.0 0.0
20/08:30am 12.2 2.8 4.2 58 3.6 E 43 54 23 29 1030.7 1030.7 0.0
20/08:00am 11.9 2.6 4.9 62 3.2 E 43 61 23 33 1030.3 1030.3 0.0
20/07:55am 11.8 2.4 4.3 60 3.4 E 43 61 23 33 1030.4 1030.4 0.0
20/07:30am 11.6 2.5 4.1 60 3.4 E 41 52 22 28 1030.2 1030.2 0.0
20/07:00am 11.5 2.2 4.9 64 3.0 E 43 56 23 30 1029.6 1029.6 0.0
20/06:43am 11.5 3.6 4.5 62 3.2 ESE 35 54 19 29 1029.4 1029.4 0.0
20/06:30am 11.8 3.0 5.7 66 2.8 E 41 54 22 29 1029.4 1029.4 0.0
20/06:00am 11.4 3.0 3.9 60 3.3 E 37 46 20 25 1029.4 1029.4 0.0
20/05:30am 11.4 4.4 4.2 61 3.2 ESE 30 43 16 23 1029.2 1029.2 0.0
20/05:00am 11.5 4.2 4.7 63 3.1 ESE 32 43 17 23 1029.1 1029.1 0.0
20/04:31am 11.6 5.1 4.8 63 3.1 ESE 28 46 15 25 1028.9 1028.9 0.0
20/04:30am 11.7 5.0 5.6 66 2.8 ESE 30 46 16 25 1028.8 1028.8 0.0
20/04:25am 11.7 5.4 5.6 66 2.8 ESE 28 46 15 25 1028.8 1028.8 0.0
20/04:00am 11.6 4.4 5.0 64 3.0 E 32 46 17 25 1028.9 1028.9 0.0
20/03:44am 11.7 4.4 4.7 62 3.2 E 32 50 17 27 1028.9 1028.9 0.0
20/03:30am 11.3 3.8 3.6 59 3.4 E 32 44 17 24 1029.0 1029.0 0.0
20/03:19am 11.4 4.0 4.2 61 3.2 E 32 50 17 27 1028.9 1028.9 0.0
20/03:00am 11.4 4.7 3.7 59 3.4 ESE 28 44 15 24 1028.8 1028.8 0.0
20/02:30am 11.5 5.0 4.5 62 3.2 E 28 35 15 19 1029.3 1029.3 0.0
20/02:00am 11.6 5.3 5.5 66 2.8 SE 28 43 15 23 1029.0 1029.0 0.0
20/01:30am 11.6 5.3 5.7 67 2.7 SE 28 41 15 22 1029.5 1029.5 0.0
20/01:01am 11.8 5.8 6.9 72 2.3 SE 28 46 15 25 1029.5 1029.5 0.0
20/01:00am 11.7 5.3 6.8 72 2.3 SE 30 46 16 25 1029.5 1029.5 0.0
20/12:30am 11.9 5.2 7.4 74 2.2 SE 32 43 17 23 1029.6 1029.6 0.0
20/12:00am 12.0 6.5 7.7 75 2.1 ESE 26 39 14 21 1029.6 1029.6 0.0
 
Date/Time
EDT
Temp
°C
App
Temp
°C
Dew
Point
Rel
Hum
%
Delta-T
°C
Wind Press
QNH
hPa
Press
MSL
hPa
Rain
since 9 am
mm
Dir
 
Spd
km/h
Gust
km/h
Spd
kts
Gust
kts
19/11:30pm 12.1 6.4 8.2 77 1.9 SE 28 43 15 23 1029.4 1029.4 0.0
19/11:00pm 12.1 5.7 7.0 71 2.4 SE 30 41 16 22 1029.5 1029.5 0.0
19/10:30pm 11.9 3.9 7.4 74 2.2 SSE 39 50 21 27 1029.0 1029.0 0.0
19/10:00pm 11.8 4.9 9.0 83 1.4 SSE 35 46 19 25 1029.1 1029.1 0.0
19/09:49pm 11.6 5.3 9.0 84 1.3 SE 32 50 17 27 1028.9 1028.9 0.0
19/09:30pm 11.4 4.4 9.8 90 0.8 SSE 37 48 20 26 1029.1 1029.1 0.0
19/09:00pm 11.8 4.9 10.2 90 0.8 SSE 37 50 20 27 1028.4 1028.4 0.0
19/08:30pm 12.0 6.0 8.8 81 1.6 SSE 30 41 16 22 1027.9 1027.9 0.0
19/08:00pm 12.3 6.5 9.3 82 1.5 SSE 30 41 16 22 1027.8 1027.8 0.0
19/07:30pm 11.9 5.6 9.1 83 1.4 SSE 32 41 17 22 1026.9 1026.9 0.0
19/07:00pm 12.1 5.4 9.7 85 1.2 S 35 43 19 23 1026.7 1026.7 0.0
19/06:30pm 13.0 6.3 9.6 80 1.7 S 35 52 19 28 1026.0 1026.0 0.0
19/06:00pm 13.0 7.0 10.2 83 1.4 S 32 44 17 24 1024.7 1024.7 0.0
19/05:30pm 14.2 9.3 11.4 83 1.5 S 28 39 15 21 1024.3 1024.3 0.0
19/05:00pm 14.6 11.1 10.8 78 2.0 S 20 30 11 16 1024.5 1024.5 0.0
19/04:30pm 14.5 10.7 11.3 81 1.7 S 22 32 12 17 1024.4 1024.4 0.0
19/04:00pm 14.4 9.7 11.9 85 1.3 S 28 37 15 20 1023.9 1023.9 0.0
19/03:30pm 14.5 10.8 11.5 82 1.6 S 22 32 12 17 1024.0 1024.0 0.0
19/03:00pm 14.5 11.5 11.8 84 1.4 S 19 26 10 14 1023.5 1023.5 0.0
19/02:30pm 14.5 11.3 12.0 85 1.4 S 20 28 11 15 1022.7 1022.7 0.0
19/02:00pm 14.8 10.8 11.8 82 1.6 S 24 30 13 16 1023.0 1023.0 0.0
19/01:30pm 14.5 11.8 11.6 83 1.6 S 17 24 9 13 1022.0 1022.0 0.0
19/01:00pm 14.7 11.6 12.2 85 1.4 S 20 28 11 15 1022.1 1022.1 0.0
19/12:30pm 14.1 10.1 11.8 86 1.2 S 24 35 13 19 1021.8 1021.8 0.0
19/12:00pm 14.9 12.4 12.2 84 1.5 S 17 28 9 15 1021.9 1021.9 0.0
19/11:30am 14.3 10.4 12.0 86 1.2 S 24 30 13 16 1021.5 1021.5 0.0
19/11:00am 14.3 11.8 12.3 88 1.1 S 17 24 9 13 1021.5 1021.5 0.0
19/10:30am 14.2 12.9 12.6 90 0.9 S 11 15 6 8 1020.8 1020.8 0.0
19/10:00am 14.2 12.9 12.6 90 0.9 S 11 15 6 8 1020.9 1020.9 0.0
19/09:30am 14.7 14.0 13.1 90 0.9 S 9 13 5 7 1020.4 1020.4 0.0
19/09:00am 14.6 14.2 13.1 91 0.8 E 7 11 4 6 1020.1 1020.1 0.0
19/08:30am 14.3 13.2 13.0 92 0.7 NE 11 17 6 9 1019.6 1019.6 0.0
19/08:00am 13.9 13.4 12.6 92 0.7 ESE 7 9 4 5 1019.9 1019.9 0.0
19/07:30am 13.7 12.7 12.4 92 0.7 E 9 13 5 7 1019.2 1019.2 0.0
19/07:00am 13.6 13.9 12.2 91 0.8 E 2 9 1 5 1018.9 1018.9 0.0
19/06:30am 13.5 13.8 12.2 92 0.7 S 2 7 1 4 1019.1 1019.1 0.0
19/06:00am 13.6 12.6 12.3 92 0.7 S 9 13 5 7 1018.8 1018.8 0.0
19/05:30am 13.7 13.3 12.4 92 0.7 NNE 6 9 3 5 1019.0 1019.0 0.0
19/05:00am 13.9 13.4 12.8 93 0.6 WNW 7 13 4 7 1019.2 1019.2 0.0
19/04:30am 13.2 13.7 11.6 90 0.9 CALM 0 0 0 0 1018.5 1018.5 0.0
19/04:00am 13.3 13.1 11.9 91 0.7 NW 4 7 2 4 1018.7 1018.7 0.0
19/03:30am 13.5 13.0 12.1 91 0.8 W 6 9 3 5 1019.0 1019.0 0.0
19/03:00am 13.7 13.7 12.3 91 0.8 WNW 4 6 2 3 1019.4 1019.4 0.0
19/02:30am 13.7 13.3 12.4 92 0.7 NW 6 9 3 5 1019.7 1019.7 0.0
19/02:00am 14.1 12.6 13.0 93 0.6 WNW 13 20 7 11 1019.8 1019.8 0.0
19/01:30am 14.5 12.0 13.4 93 0.6 W 19 22 10 12 1019.7 1019.7 0.0
19/01:00am 14.5 12.2 13.0 91 0.8 WNW 17 22 9 12 1019.5 1019.5 0.0
19/12:30am 14.9 12.1 13.1 89 1.0 W 20 28 11 15 1019.6 1019.6 0.0
19/12:00am 15.3 11.6 12.8 85 1.4 WNW 24 32 13 17 1019.6 1019.6 0.0
 
Date/Time
EDT
Temp
°C
App
Temp
°C
Dew
Point
Rel
Hum
%
Delta-T
°C
Wind Press
QNH
hPa
Press
MSL
hPa
Rain
since 9 am
mm
Dir
 
Spd
km/h
Gust
km/h
Spd
kts
Gust
kts
18/11:30pm 15.3 12.2 12.1 81 1.7 NW 20 26 11 14 1019.2 1019.2 0.0
18/11:00pm 15.8 11.8 11.8 77 2.2 WNW 24 30 13 16 1019.2 1019.2 0.0
18/10:30pm 16.3 12.2 11.5 73 2.6 WNW 24 33 13 18 1019.5 1019.5 0.0
18/10:00pm 16.7 12.4 10.8 68 3.2 NW 24 32 13 17 1019.6 1019.6 0.0
18/09:30pm 17.4 13.3 10.1 62 3.9 NW 22 30 12 16 1019.6 1019.6 0.0
18/09:00pm 18.8 13.3 9.0 53 5.1 NW 28 41 15 22 1019.1 1019.1 0.0
18/08:30pm 19.4 14.9 8.4 49 5.7 NW 22 33 12 18 1018.5 1018.5 0.0
18/08:00pm 21.0 15.7 6.9 40 7.2 NW 24 32 13 17 1018.1 1018.1 0.0
18/07:30pm 22.4 15.9 4.9 32 8.7 NW 28 35 15 19 1017.7 1017.7 0.0
18/07:00pm 22.8 16.4 5.3 32 8.7 NNW 28 37 15 20 1017.6 1017.6 0.0
18/06:30pm 23.1 17.1 5.5 32 8.9 NW 26 35 14 19 1017.7 1017.7 0.0
18/06:00pm 25.0 20.3 6.2 30 9.7 NW 20 32 11 17 1017.7 1017.7 0.0
18/05:30pm 27.2 22.6 6.6 27 10.9 NW 20 35 11 19 1017.6 1017.6 0.0
18/05:00pm 28.2 22.5 6.9 26 11.3 NNW 26 39 14 21 1017.4 1017.4 0.0
18/04:52pm 27.9 21.3 4.2 22 12.0 NNW 28 46 15 25 1017.4 1017.4 0.0
18/04:30pm 29.0 24.5 8.7 28 11.2 N 22 33 12 18 1017.7 1017.7 0.0
18/04:00pm 27.8 22.6 7.1 27 11.0 N 24 37 13 20 1017.9 1017.9 0.0
18/03:30pm 27.8 22.0 8.1 29 10.7 N 28 43 15 23 1017.9 1017.9 0.0
18/03:00pm 26.1 20.1 7.2 30 10.0 N 28 43 15 23 1018.5 1018.5 0.0
18/02:30pm 25.3 20.3 7.9 33 9.3 N 24 35 13 19 1018.8 1018.8 0.0
18/02:00pm 25.1 18.4 7.3 32 9.4 N 32 46 17 25 1019.0 1019.0 0.0
18/01:43pm 26.0 20.2 8.0 32 9.7 N 28 46 15 25 1019.0 1019.0 0.0
18/01:30pm 25.7 19.1 7.8 32 9.6 N 32 46 17 25 1019.2 1019.2 0.0
18/01:09pm 24.1 18.0 6.4 32 9.1 N 28 46 15 25 1019.7 1019.7 0.0
18/01:00pm 24.1 18.5 7.3 34 8.8 N 26 39 14 21 1020.0 1020.0 0.0
18/12:30pm 23.7 18.6 7.8 36 8.4 N 24 41 13 22 1020.6 1020.6 0.0
18/12:00pm 22.8 16.8 7.0 36 8.1 N 28 46 15 25 1021.0 1021.0 0.0
18/11:49am 22.0 15.8 6.3 36 8.0 N 28 46 15 25 1021.2 1021.2 0.0
18/11:30am 21.0 14.6 6.9 40 7.2 N 30 44 16 24 1021.2 1021.2 0.0
18/11:01am 19.1 12.2 4.8 39 6.9 N 30 50 16 27 1021.6 1021.6 0.0
18/11:00am 19.0 12.2 5.1 40 6.7 N 30 46 16 25 1021.6 1021.6 0.0
18/10:35am 18.0 10.1 4.2 40 6.5 N 35 54 19 29 1021.6 1021.6 0.0
18/10:30am 17.7 10.2 4.3 41 6.3 N 33 50 18 27 1021.6 1021.6 0.0
18/10:18am 16.9 9.6 4.3 43 5.9 N 32 50 17 27 1021.8 1021.8 0.0
18/10:00am 16.5 9.1 3.9 43 5.8 N 32 48 17 26 1022.2 1022.2 0.0
18/09:30am 15.9 8.4 3.7 44 5.6 N 32 48 17 26 1022.2 1022.2 0.0
18/09:03am 15.6 8.0 3.1 43 5.7 N 32 50 17 27 1022.4 1022.4 0.0
18/09:00am 15.6 8.1 3.4 44 5.6 N 32 44 17 24 1022.5 1022.5 0.0
18/08:30am 14.9 8.2 3.4 46 5.2 N 28 43 15 23 1022.5 1022.5 0.0
18/08:00am 14.4 7.3 3.8 49 4.8 N 30 43 16 23 1022.2 1022.2 0.0
18/07:30am 13.7 7.9 4.3 53 4.3 N 24 33 13 18 1022.0 1022.0 0.0
18/07:00am 13.5 8.1 4.4 54 4.2 N 22 33 12 18 1022.3 1022.3 0.0
18/06:30am 13.2 7.5 5.1 58 3.8 NNE 24 37 13 20 1021.5 1021.5 0.0
18/06:00am 12.5 7.6 7.0 69 2.6 NNE 22 32 12 17 1021.1 1021.1 0.0
18/05:30am 12.2 7.2 8.1 76 2.0 NNE 24 32 13 17 1021.2 1021.2 0.0
18/05:00am 12.1 6.8 8.4 78 1.8 NNE 26 33 14 18 1021.5 1021.5 0.0
18/04:30am 11.9 6.9 8.2 78 1.8 NNE 24 32 13 17 1021.5 1021.5 0.0
18/04:00am 11.4 6.8 8.1 80 1.6 NE 22 30 12 16 1021.6 1021.6 0.0
18/03:30am 11.3 7.2 8.0 80 1.6 NE 19 24 10 13 1022.1 1022.1 0.0
18/03:00am 11.6 7.4 7.5 76 2.0 NE 19 24 10 13 1022.5 1022.5 0.0
18/02:30am 11.7 6.5 7.4 75 2.1 NE 24 33 13 18 1022.4 1022.4 0.0
18/02:00am 11.6 6.5 7.5 76 2.0 NE 24 33 13 18 1022.0 1022.0 0.0
18/01:30am 11.4 5.5 7.3 76 2.0 NE 28 37 15 20 1022.2 1022.2 0.0
18/01:00am 11.6 5.7 7.5 76 2.0 ENE 28 39 15 21 1022.0 1022.0 0.0
18/12:30am 11.3 5.3 7.2 76 2.0 NNE 28 39 15 21 1022.0 1022.0 0.0
18/12:00am 11.7 6.2 7.6 76 2.0 NE 26 37 14 20 1022.6 1022.6 0.0

Other Formats:

Comma delimited format used in spreadsheet applications
http://www.bom.gov.au/fwo/IDV60801/IDV60801.94826.axf

JavaScript Object Notation format (JSON) in row-major order
http://www.bom.gov.au/fwo/IDV60801/IDV60801.94826.json